Latest Coastal Weather Observations for Mallacoota

IDV60701

Issued at 8:25 pm EST Monday 28 July 2014 (issued every 10 minutes, with the page automatically refreshed every 10 minutes)

About coastal observations | Map of coastal stations | Coastal observations for VIC | Marine services | Other Formats
Station Details ID: 084084 Name: MALLACOOTA Lat: -37.60 Lon: 149.73 Height: 22.0 m
Data from the previous 72 hours. | See also: Recent months at Mallacoota
Date/Time
EST
Temp

°C
Wind Pressure Rain
since 9am
mm
Weather Cloud Vis
km
Sea
Height
m
Swell
Dir
 
Speed
knots
Gust
knots
hPa Trend Height
m
Period
s
Dir
28/08:00pm 12.1 NNW 6 8 1013.7 - 0.0 - - - - - - -
28/07:30pm 12.6 NNW 6 9 1013.6 - 0.0 - - - - - - -
28/07:00pm 13.5 NNW 7 11 1013.6 - 0.0 - - - - - - -
28/06:30pm 14.1 NNW 7 10 1013.5 - 0.0 - - - - - - -
28/06:00pm 14.7 NNW 7 10 1013.3 - 0.0 - - - - - - -
28/05:30pm 15.6 NNW 6 9 1013.2 - 0.0 - - - - - - -
28/05:00pm 16.4 NNW 8 12 1013.1 - 0.0 - - - - - - -
28/04:30pm 17.3 NNW 7 10 1013.0 - 0.0 - - - - - - -
28/04:00pm 18.3 N 5 7 1013.2 - 0.0 - - - - - - -
28/03:30pm 18.9 N 7 9 1013.3 - 0.0 - - - - - - -
28/03:00pm 19.2 N 6 9 1013.3 - 0.0 - - - - - - -
28/02:30pm 18.9 N 7 11 1013.5 - 0.0 - - - - - - -
28/02:00pm 18.8 N 9 12 1013.7 - 0.0 - - - - - - -
28/01:30pm 18.8 N 7 9 1014.0 - 0.0 - - - - - - -
28/01:00pm 18.5 NNW 7 10 1014.4 - 0.0 - - - - - - -
28/12:30pm 18.0 NNW 8 12 1015.1 - 0.0 - - - - - - -
28/12:00pm 17.3 NNW 7 11 1015.7 - 0.0 - - - - - - -
28/11:30am 16.8 NNW 7 10 1016.0 - 0.0 - - - - - - -
28/11:00am 15.8 NNW 8 12 1016.5 - 0.0 - - - - - - -
28/10:30am 14.9 NNW 7 11 1017.0 - 0.0 - - - - - - -
28/10:00am 13.3 NNW 8 11 1017.1 - 0.0 - - - - - - -
28/09:30am 12.2 NNW 9 13 1017.2 - 0.0 - - - - - - -
28/09:00am 10.7 NNW 8 12 1017.4 - 0.2 - - - - - - -
28/08:30am 9.3 NNW 8 12 1017.6 - 0.2 - - - - - - -
28/08:00am 8.0 NNW 7 9 1017.8 - 0.2 - - - - - - -
28/07:30am 6.8 NNW 8 10 1017.9 - 0.2 - - - - - - -
28/07:00am 6.9 NNW 8 11 1017.9 - 0.2 - - - - - - -
28/06:30am 6.5 NW 8 10 1017.9 - 0.2 - - - - - - -
28/06:00am 6.5 NNW 8 11 1017.8 - 0.2 - - - - - - -
28/05:30am 6.3 NW 8 12 1017.7 - 0.2 - - - - - - -
28/05:00am 6.3 NW 8 11 1017.8 - 0.2 - - - - - - -
28/04:30am 6.4 NW 8 11 1018.1 - 0.2 - - - - - - -
28/04:00am 6.9 NW 8 10 1018.4 - 0.2 - - - - - - -
28/03:30am 7.3 WNW 7 9 1018.4 - 0.2 - - - - - - -
28/03:00am 7.5 NW 8 10 1018.4 - 0.2 - - - - - - -
28/02:30am 7.5 NW 8 12 1018.4 - 0.2 - - - - - - -
28/02:00am 7.2 WNW 7 9 1018.7 - 0.2 - - - - - - -
28/01:30am 7.4 NW 7 9 1019.1 - 0.2 - - - - - - -
28/01:00am 7.4 WNW 3 5 1019.4 - 0.2 - - - - - - -
28/12:30am 8.2 WNW 5 7 1019.6 - 0.2 - - - - - - -
28/12:00am 8.6 WNW 7 9 1019.8 - 0.2 - - - - - - -
 
Date/Time
EST
Temp

°C
Wind Pressure Rain
since 9am
mm
Weather Cloud Vis
km
Sea
Height
m
Swell
Dir
 
Speed
knots
Gust
knots
hPa Trend Height
m
Period
s
Dir
27/11:30pm 9.0 WNW 6 8 1020.1 - 0.2 - - - - - - -
27/11:00pm 9.1 NW 7 9 1020.1 - 0.2 - - - - - - -
27/10:30pm 9.0 NW 7 8 1020.2 - 0.2 - - - - - - -
27/10:00pm 9.3 NW 6 7 1020.7 - 0.0 - - - - - - -
27/09:30pm 9.7 NW 5 7 1021.2 - 0.0 - - - - - - -
27/09:00pm 10.1 WNW 5 6 1021.2 - 0.0 - - - - - - -
27/08:30pm 9.8 WNW 5 7 1021.4 - 0.0 - - - - - - -
27/08:00pm 9.9 WNW 5 7 1021.0 - 0.0 - - - - - - -
27/07:30pm 9.9 WNW 5 6 1020.6 - 0.0 - - - - - - -
27/07:00pm 10.1 WNW 5 5 1020.6 - 0.0 - - - - - - -
27/06:30pm 10.5 W 4 5 1020.6 - 0.0 - - - - - - -
27/06:00pm 10.6 W 4 5 1020.3 - 0.0 - - - - - - -
27/05:30pm 11.1 SW 3 4 1020.0 - 0.0 - - - - - - -
27/05:00pm 12.1 SW 3 4 1019.9 - 0.0 - - - - - - -
27/04:30pm 13.6 SSW 3 4 1019.8 - 0.0 - - - - - - -
27/04:00pm 14.5 SW 4 6 1020.0 - 0.0 - - - - - - -
27/03:30pm 15.2 SW 5 8 1020.2 - 0.0 - - - - - - -
27/03:00pm 15.6 WSW 5 11 1020.3 - 0.0 - - - - - - -
27/02:30pm 15.6 SW 7 11 1020.3 - 0.0 - - - - - - -
27/02:00pm 14.3 SW 7 11 1020.6 - 0.0 - - - - - - -
27/01:30pm 15.2 SW 9 13 1020.8 - 0.0 - - - - - - -
27/01:00pm 15.1 SW 7 11 1021.2 - 0.0 - - - - - - -
27/12:30pm 15.0 W 7 13 1021.8 - 0.0 - - - - - - -
27/12:00pm 14.7 WSW 8 13 1022.2 - 0.0 - - - - - - -
27/11:30am 15.9 W 7 10 1022.5 - 0.0 - - - - - - -
27/11:00am 14.9 WSW 9 16 1022.8 - 0.0 - - - - - - -
27/10:30am 13.7 W 6 12 1023.2 - 0.0 - - - - - - -
27/10:00am 13.9 WSW 7 14 1023.5 - 0.0 - - - - - - -
27/09:30am 13.0 W 7 10 1023.4 - 0.0 - - - - - - -
27/09:00am 12.1 W 7 12 1023.7 - 0.2 - - - - - - -
27/08:30am 11.9 W 8 12 1023.3 - 0.2 - - - - - - -
27/08:00am 11.5 W 7 12 1023.1 - 0.2 - - - - - - -
27/07:30am 11.4 W 7 12 1022.8 - 0.2 - - - - - - -
27/07:00am 11.6 W 9 14 1022.6 - 0.2 - - - - - - -
27/06:30am 11.3 W 7 10 1022.2 - 0.2 - - - - - - -
27/06:00am 11.5 W 6 10 1022.1 - 0.2 - - - - - - -
27/05:30am 11.7 WSW 7 12 1021.8 - 0.2 - - - - - - -
27/05:00am 12.0 W 9 16 1021.6 - 0.2 - - - - - - -
27/04:30am 12.0 WSW 9 14 1021.6 - 0.2 - - - - - - -
27/04:00am 12.0 W 9 16 1021.4 - 0.2 - - - - - - -
27/03:30am 12.0 W 8 14 1021.3 - 0.2 - - - - - - -
27/03:00am 12.3 W 9 16 1021.4 - 0.2 - - - - - - -
27/02:30am 12.0 W 8 17 1021.3 - 0.2 - - - - - - -
27/02:00am 11.9 W 8 14 1021.5 - 0.2 - - - - - - -
27/01:30am 12.1 W 8 14 1021.5 - 0.2 - - - - - - -
27/01:00am 12.1 W 9 18 1021.5 - 0.2 - - - - - - -
27/12:30am 12.0 W 9 13 1021.4 - 0.2 - - - - - - -
27/12:00am 11.7 W 9 14 1021.8 - 0.2 - - - - - - -
 
Date/Time
EST
Temp

°C
Wind Pressure Rain
since 9am
mm
Weather Cloud Vis
km
Sea
Height
m
Swell
Dir
 
Speed
knots
Gust
knots
hPa Trend Height
m
Period
s
Dir
26/11:30pm 11.9 W 8 16 1022.0 - 0.2 - - - - - - -
26/11:00pm 12.1 W 9 17 1021.9 - 0.2 - - - - - - -
26/10:30pm 12.0 W 7 12 1022.0 - 0.2 - - - - - - -
26/10:00pm 11.5 NW 6 12 1022.0 - 0.2 - - - - - - -
26/09:30pm 11.4 WNW 6 8 1022.2 - 0.2 - - - - - - -
26/09:00pm 11.2 WNW 5 7 1022.2 - 0.2 - - - - - - -
26/08:30pm 11.2 WNW 5 7 1021.9 - 0.2 - - - - - - -
26/08:00pm 10.8 WNW 5 7 1021.8 - 0.2 - - - - - - -
26/07:30pm 11.3 WNW 5 6 1021.7 - 0.2 - - - - - - -
26/07:00pm 11.9 WNW 5 6 1021.7 - 0.2 - - - - - - -
26/06:30pm 12.1 WNW 4 5 1021.6 - 0.2 - - - - - - -
26/06:00pm 12.2 WNW 3 6 1021.4 - 0.2 - - - - - - -
26/05:30pm 12.3 W 3 4 1021.1 - 0.2 - - - - - - -
26/05:00pm 13.1 WSW 4 6 1020.8 - 0.2 - - - - - - -
26/04:30pm 13.5 WSW 3 5 1020.8 - 0.2 - - - - - - -
26/04:00pm 13.4 WSW 3 6 1020.6 - 0.2 - - - - - - -
26/03:30pm 13.8 SW 7 11 1020.7 - 0.0 - - - - - - -
26/03:00pm 15.5 SSW 8 12 1020.2 - 0.0 - - - - - - -
26/02:30pm 16.2 S 6 11 1020.0 - 0.0 - - - - - - -
26/02:00pm 15.9 S 6 9 1020.0 - 0.0 - - - - - - -
26/01:30pm 15.9 S 8 11 1020.1 - 0.0 - - - - - - -
26/01:00pm 15.5 S 6 9 1020.5 - 0.0 - - - - - - -
26/12:30pm 15.9 S 5 7 1020.7 - 0.0 - - - - - - -
26/12:00pm 16.0 SSE 5 7 1021.2 - 0.0 - - - - - - -
26/11:30am 16.6 SSW 3 6 1021.6 - 0.0 - - - - - - -
26/11:00am 15.1 WNW 4 5 1021.9 - 0.0 - - - - - - -
26/10:30am 12.9 NW 5 7 1022.2 - 0.0 - - - - - - -
26/10:00am 13.0 WNW 3 5 1022.4 - 0.0 - - - - - - -
26/09:30am 11.4 WNW 6 7 1022.2 - 0.0 - - - - - - -
26/09:00am 11.4 NW 7 9 1022.0 - 0.0 - - - - - - -
26/08:30am 10.3 NW 8 9 1021.7 - 0.0 - - - - - - -
26/08:00am 9.4 WNW 7 10 1021.3 - 0.0 - - - - - - -
26/07:30am 8.2 NW 7 9 1021.3 - 0.0 - - - - - - -
26/07:00am 8.3 NW 8 10 1021.1 - 0.0 - - - - - - -
26/06:30am 8.8 NW 7 9 1020.8 - 0.0 - - - - - - -
26/06:00am 9.3 NW 7 9 1020.6 - 0.0 - - - - - - -
26/05:30am 9.0 NW 7 8 1020.5 - 0.0 - - - - - - -
26/05:00am 8.9 NW 7 9 1020.2 - 0.0 - - - - - - -
26/04:30am 8.6 NW 7 10 1020.1 - 0.0 - - - - - - -
26/04:00am 9.4 NW 7 9 1020.1 - 0.0 - - - - - - -
26/03:30am 8.8 NW 7 9 1020.2 - 0.0 - - - - - - -
26/03:00am 8.8 NW 6 9 1020.1 - 0.0 - - - - - - -
26/02:30am 9.1 NW 6 8 1020.3 - 0.0 - - - - - - -
26/02:00am 7.9 WNW 2 4 1020.5 - 0.0 - - - - - - -
26/01:30am 8.4 NW 5 6 1020.4 - 0.0 - - - - - - -
26/01:00am 9.1 NW 4 5 1020.3 - 0.0 - - - - - - -
26/12:30am 8.9 N 2 5 1020.4 - 0.0 - - - - - - -
26/12:00am 8.3 NE 2 4 1020.4 - 0.0 - - - - - - -
 
Date/Time
EST
Temp

°C
Wind Pressure Rain
since 9am
mm
Weather Cloud Vis
km
Sea
Height
m
Swell
Dir
 
Speed
knots
Gust
knots
hPa Trend Height
m
Period
s
Dir
25/11:30pm 8.2 WNW 1 3 1020.4 - 0.0 - - - - - - -
25/11:00pm 9.8 NW 3 4 1020.5 - 0.0 - - - - - - -
25/10:30pm 10.3 WNW 4 5 1020.2 - 0.0 - - - - - - -
25/10:00pm 10.9 NW 5 6 1020.1 - 0.0 - - - - - - -
25/09:30pm 11.3 WNW 7 8 1020.2 - 0.0 - - - - - - -
25/09:00pm 10.3 WNW 5 7 1020.3 - 0.0 - - - - - - -
25/08:30pm 11.0 WNW 6 9 1020.0 - 0.0 - - - - - - -

Other Formats:

Comma delimited format used in spreadsheet applications
http://www.bom.gov.au/fwo/IDV60701/IDV60701.94935.axf

JavaScript Object Notation format (JSON) in row-major order
http://www.bom.gov.au/fwo/IDV60701/IDV60701.94935.json